Keiser, Arkansas
Current Conditions -  °F | °C
As of 1:53 AM on Sunday 26 Oct 2014 (Local Time) from KHKA Reporting Station
Clear Clear  
Wind Chill: 64°   Ceiling: Unl
Heat Index: 64°   Visibility: 8mi
Dew Point: 62°   Wind: 5mph
Humidity: 93%   Direction: 200°SSW
Pressure: 29.99"   Gusts: NA
Location:  35.67°N, 90.1°W
Report Text: KHKA 260653Z AUTO 20004KT 8SM CLR 18/17 A2999 RMK AO2 SLP155 T01780167
Loading
Personal Weather Stations






























Interactive Weather Map
Tropical Storm Tracking
New forecast layout! Learn more

10-Day Weather Forecast

Advertisements
Track Severe Weather on mobile